Aeroporto :
LOGIN :

Iscrizione | Disclaimer

   EN    FR    IT 

 










Sommario :    VFR   VFR Marginale   IFR   IFR Intensivo   IFR Molto Intensivo
Visibilità : 
Base nubi : 
>= 8 km
>= 3000ft
5 / 8 km
1000 / 3000 ft
1500m / 5 km
500 / 1000 ft
800 / 1500m
200 / 500 ft
< 800m
< 200 ft
Simboli :   Temporali  Nebbia  Neve Forte  Precipitazioni Forti  Vento > 20 kt
SIGMETs :   Varie  Temporali  Ghiacco  Turbolenza  Onda orograficha  Ceneri Vulcaniche






- Altitudine del aeroporto : 782 ft
- Codice IATA : BGY


LIME - Orio al Serio International - Bergamo

ULTIMO METAR :
  • 130750Z 01002KT 1200 R28/P1500N -SN BR SCT002 BKN010 00/00 Q0992 NOSIG

METARs OBSOLETI :
  • 130720Z VRB02KT 1200 R28/P1500N -SN BR BKN002 00/00 Q0992 R28/290195 NOSIG
  • 130650Z 10003KT 1200 R28/P1500N -SN BR BKN002 00/00 Q0993 NOSIG
  • 130620Z VRB01KT 1500 -SN BR BKN003 00/00 Q0994 NOSIG
  • 130550Z VRB02KT 1500 -SN BR BKN003 01/01 Q0994 NOSIG
  • 130520Z VRB02KT 2000 BR SCT003 BKN040 01/01 Q0994 R28/290195 NOSIG

TAF TAF LIME
Valido dal 13 a 06 ore il 14 a 06 ore UTC


130500Z 1306/1406 VRB05KT 1000 SN OVC010
BECMG 1313/1315 33008KT 7000 SCT030 SCT070



MetMap, La meteo Aeronautica in un colpo d'occhio ! - Copyright ORBIFLY Dicembre 2007 - Disclaimer

ORBIFLY MET'MAP TEAM :

Programmazione e sviluppo : Alexandra Zaïnal
Concezione : Baudouin d'Aumeries
Aiuto per la programmazione : Marc-Olivier Méhu
Supporto tecnico e logistico : Manuel Goepfert
Aiuto per la traduzione : Arnaldo La Scala

Contatto : metmap@orbifly.com




FONTI E CREDITI :

   NOAA